createdAt,value
2022-11-06T00:00:43.231Z,28.98
2022-11-06T00:03:44.970Z,31.65
2022-11-06T00:06:48.305Z,33.72
2022-11-06T00:09:49.641Z,35.83
2022-11-06T00:12:51.035Z,43.08
2022-11-06T00:15:52.344Z,36.50
2022-11-06T00:18:53.384Z,34.75
2022-11-06T00:21:54.513Z,38.70
2022-11-06T00:24:55.357Z,32.97
2022-11-06T00:27:56.414Z,28.23
2022-11-06T00:31:11.945Z,29.15
2022-11-06T00:34:12.802Z,33.08
2022-11-06T00:37:14.713Z,38.47
2022-11-06T00:40:15.722Z,35.97
2022-11-06T00:43:16.657Z,36.72
2022-11-06T00:46:19.160Z,41.67
2022-11-06T00:49:20.105Z,43.63
2022-11-06T00:52:20.809Z,39.80
2022-11-06T00:55:22.033Z,40.72
2022-11-06T00:58:22.823Z,35.45
2022-11-06T01:01:40.350Z,37.35
2022-11-06T01:04:41.276Z,45.05
2022-11-06T01:07:42.494Z,49.17
2022-11-06T01:10:43.291Z,39.47
2022-11-06T01:13:45.938Z,40.13
2022-11-06T01:16:47.112Z,37.53
2022-11-06T01:19:47.952Z,33.65
2022-11-06T01:22:48.760Z,34.55
2022-11-06T01:26:04.774Z,36.75
2022-11-06T01:29:09.000Z,31.63
2022-11-06T01:32:10.058Z,29.70
2022-11-06T01:35:11.000Z,30.05
2022-11-06T01:38:12.046Z,30.55
2022-11-06T01:41:16.539Z,31.88
2022-11-06T01:44:36.044Z,31.23
2022-11-06T01:47:37.109Z,30.92
2022-11-06T01:50:39.035Z,32.00
2022-11-06T01:53:41.392Z,32.50
2022-11-06T01:56:47.316Z,35.67
2022-11-06T01:59:52.511Z,34.75
2022-11-06T02:02:54.275Z,36.90
2022-11-06T02:05:57.289Z,43.78
2022-11-06T02:08:58.382Z,40.80
2022-11-06T02:12:36.606Z,45.05
2022-11-06T02:16:09.801Z,44.65
2022-11-06T02:19:42.328Z,42.72
2022-11-06T02:23:40.449Z,46.53
2022-11-06T02:27:34.024Z,45.67
2022-11-06T02:30:44.438Z,40.83
2022-11-06T02:33:53.470Z,42.25
2022-11-06T02:37:04.837Z,41.15
2022-11-06T02:40:11.740Z,40.58
2022-11-06T02:43:16.340Z,44.15
2022-11-06T02:46:43.698Z,38.78
2022-11-06T02:49:57.725Z,38.63
2022-11-06T02:53:04.389Z,41.38
2022-11-06T02:56:16.698Z,40.97
2022-11-06T02:59:33.142Z,41.38
2022-11-06T03:02:42.431Z,39.03
2022-11-06T03:06:12.370Z,35.15
2022-11-06T03:09:21.606Z,35.47
2022-11-06T03:12:54.806Z,36.75
2022-11-06T03:16:05.721Z,39.70
2022-11-06T03:19:30.306Z,34.45
2022-11-06T03:23:10.050Z,33.50
2022-11-06T03:26:18.266Z,33.55
2022-11-06T03:29:37.990Z,39.08
2022-11-06T03:32:53.235Z,35.75
2022-11-06T03:36:11.111Z,36.80
2022-11-06T03:39:19.577Z,34.10
2022-11-06T03:42:31.010Z,31.67
2022-11-06T03:45:35.090Z,36.72
2022-11-06T03:48:49.066Z,37.13
2022-11-06T03:52:00.430Z,49.88
2022-11-06T03:55:07.115Z,51.08
2022-11-06T03:58:18.769Z,62.65
2022-11-06T04:01:32.455Z,58.80
2022-11-06T04:04:53.377Z,37.88
2022-11-06T04:08:15.788Z,32.38
2022-11-06T04:11:42.756Z,36.97
2022-11-06T04:14:50.666Z,37.13
2022-11-06T04:17:51.635Z,36.53
2022-11-06T04:21:26.071Z,48.95
2022-11-06T04:25:29.983Z,49.90
2022-11-06T04:29:12.110Z,51.50
2022-11-06T04:32:43.219Z,48.00
2022-11-06T04:36:32.104Z,44.95
2022-11-06T04:39:58.291Z,43.38
2022-11-06T04:43:06.918Z,31.35
2022-11-06T04:46:13.764Z,40.33
2022-11-06T04:49:16.310Z,43.30
2022-11-06T04:52:24.846Z,29.02
2022-11-06T04:55:29.420Z,28.67
2022-11-06T04:58:30.263Z,30.50
2022-11-06T05:01:32.276Z,29.25
2022-11-06T05:04:33.912Z,28.13
2022-11-06T05:07:35.119Z,26.95
2022-11-06T05:10:36.003Z,28.08
2022-11-06T05:13:38.374Z,27.08
2022-11-06T05:16:39.533Z,23.58
2022-11-06T05:19:40.343Z,19.02
2022-11-06T05:23:01.208Z,23.45
2022-11-06T05:26:02.495Z,21.77
2022-11-06T05:29:03.736Z,24.02
2022-11-06T05:32:05.209Z,27.98
2022-11-06T05:35:06.822Z,20.98
2022-11-06T05:38:07.908Z,26.58
2022-11-06T05:41:08.990Z,30.48
2022-11-06T05:44:09.846Z,26.95
2022-11-06T05:47:10.580Z,30.73
2022-11-06T05:50:11.891Z,26.50
2022-11-06T05:53:12.841Z,25.77
2022-11-06T05:56:13.862Z,25.52
2022-11-06T05:59:14.624Z,34.47
2022-11-06T06:02:15.627Z,21.30
2022-11-06T06:05:17.807Z,27.77
2022-11-06T06:08:19.188Z,26.48
2022-11-06T06:11:19.964Z,26.05
2022-11-06T06:14:21.670Z,29.20
2022-11-06T06:17:23.035Z,27.73
2022-11-06T06:20:24.357Z,29.58
2022-11-06T06:23:25.388Z,26.20
2022-11-06T06:26:26.231Z,25.00
2022-11-06T06:29:27.004Z,26.38
2022-11-06T06:32:27.815Z,28.77
2022-11-06T06:35:28.735Z,24.77
2022-11-06T06:38:29.733Z,24.65
2022-11-06T06:41:30.892Z,19.98
2022-11-06T06:44:31.907Z,21.00
2022-11-06T06:47:32.760Z,16.00
2022-11-06T06:50:33.776Z,19.10
2022-11-06T06:53:36.214Z,15.85
2022-11-06T06:56:37.563Z,20.77
2022-11-06T06:59:38.580Z,18.05
2022-11-06T07:02:39.301Z,20.48
2022-11-06T07:05:41.428Z,19.38
2022-11-06T07:08:42.554Z,18.58
2022-11-06T07:11:43.858Z,17.33
2022-11-06T07:14:45.084Z,18.60
2022-11-06T07:17:45.909Z,17.75
2022-11-06T07:20:46.820Z,17.08
2022-11-06T07:25:31.209Z,14.88
2022-11-06T07:28:33.242Z,20.08
2022-11-06T07:31:34.288Z,16.33
2022-11-06T07:34:38.806Z,16.35
2022-11-06T07:37:39.650Z,16.25
2022-11-06T07:40:40.740Z,16.90
2022-11-06T07:43:42.965Z,18.90
2022-11-06T07:46:44.028Z,16.70
2022-11-06T07:49:50.581Z,13.77
2022-11-06T07:52:52.091Z,14.38
2022-11-06T07:55:55.764Z,14.40
2022-11-06T07:58:57.882Z,12.75
2022-11-06T08:01:58.771Z,13.98
2022-11-06T08:05:00.122Z,8.40
2022-11-06T08:08:00.959Z,9.40
2022-11-06T08:11:07.719Z,9.43
2022-11-06T08:14:08.644Z,8.45
2022-11-06T08:17:09.751Z,9.43
2022-11-06T08:20:11.040Z,10.40
2022-11-06T08:23:13.867Z,9.63
2022-11-06T08:26:14.966Z,9.73
2022-11-06T08:29:16.697Z,8.43
2022-11-06T08:32:18.004Z,7.57
2022-11-06T08:35:19.115Z,7.07
2022-11-06T08:38:19.909Z,6.53
2022-11-06T08:41:21.043Z,7.93
2022-11-06T08:44:23.865Z,7.90
2022-11-06T08:47:25.342Z,6.95
2022-11-06T08:50:25.960Z,6.60
2022-11-06T08:53:27.091Z,6.78
2022-11-06T08:56:28.343Z,6.25
2022-11-06T08:59:29.103Z,6.70
2022-11-06T09:02:29.961Z,6.13
2022-11-06T09:05:31.479Z,6.10
2022-11-06T09:08:32.767Z,6.45
2022-11-06T09:11:34.038Z,6.05
2022-11-06T09:14:35.423Z,6.05
2022-11-06T09:17:44.333Z,5.47
2022-11-06T09:20:45.065Z,5.47
2022-11-06T09:23:47.216Z,6.45
2022-11-06T09:26:48.263Z,6.28
2022-11-06T09:29:49.328Z,5.82
2022-11-06T09:32:54.635Z,5.30
2022-11-06T09:35:55.590Z,5.55
2022-11-06T09:38:57.041Z,5.28
2022-11-06T09:42:29.787Z,5.93
2022-11-06T09:45:33.966Z,6.38
2022-11-06T09:48:53.467Z,5.85
2022-11-06T09:52:35.822Z,5.20
2022-11-06T09:55:45.023Z,5.93
2022-11-06T09:58:48.249Z,11.25
2022-11-06T10:01:58.338Z,5.43
2022-11-06T10:05:26.031Z,5.10
2022-11-06T10:12:02.122Z,5.00
2022-11-06T10:15:22.722Z,5.88
2022-11-06T10:18:36.680Z,5.28
2022-11-06T10:22:09.560Z,5.38
2022-11-06T10:26:00.194Z,5.40
2022-11-06T10:29:38.766Z,5.53
2022-11-06T10:32:54.794Z,5.25
2022-11-06T10:36:18.269Z,5.47
2022-11-06T10:39:25.068Z,4.90
2022-11-06T10:42:38.362Z,4.70
2022-11-06T10:45:47.585Z,4.78
2022-11-06T10:49:00.769Z,4.57
2022-11-06T10:52:10.266Z,4.22
2022-11-06T10:56:20.952Z,4.15
2022-11-06T10:59:22.209Z,4.03
2022-11-06T11:02:30.293Z,4.13
2022-11-06T11:05:44.204Z,3.67
2022-11-06T11:08:47.663Z,3.90
2022-11-06T11:11:52.074Z,4.15
2022-11-06T11:15:14.910Z,3.70
2022-11-06T11:18:22.881Z,4.25
2022-11-06T11:21:27.893Z,3.28
2022-11-06T11:24:29.440Z,3.20
2022-11-06T11:27:37.454Z,5.78
2022-11-06T11:30:38.685Z,3.50
2022-11-06T11:33:53.261Z,3.97
2022-11-06T11:37:07.087Z,3.83
2022-11-06T11:40:36.379Z,4.20
2022-11-06T11:43:37.894Z,4.32
2022-11-06T11:46:54.406Z,3.75
2022-11-06T11:49:55.250Z,4.10
2022-11-06T11:53:19.132Z,5.15
2022-11-06T11:56:36.484Z,4.70
2022-11-06T11:59:55.340Z,5.40
2022-11-06T12:03:07.105Z,5.25
2022-11-06T12:06:13.253Z,4.55
2022-11-06T12:09:14.784Z,5.57
2022-11-06T12:12:24.934Z,5.43
2022-11-06T12:16:04.805Z,5.70
2022-11-06T12:19:09.398Z,6.00
2022-11-06T12:22:24.705Z,5.85
2022-11-06T12:25:41.371Z,6.68
2022-11-06T12:28:48.878Z,5.95
2022-11-06T12:32:03.929Z,6.00
2022-11-06T12:35:36.895Z,6.00
2022-11-06T12:38:59.441Z,6.80
2022-11-06T12:42:05.230Z,6.22
2022-11-06T12:45:13.042Z,6.28
2022-11-06T12:48:36.225Z,6.20
2022-11-06T12:52:27.054Z,6.40
2022-11-06T12:55:52.112Z,8.98
2022-11-06T12:58:55.717Z,6.18
2022-11-06T13:02:34.315Z,7.10
2022-11-06T13:06:23.386Z,6.47
2022-11-06T13:09:53.957Z,6.45
2022-11-06T13:13:38.160Z,6.32
2022-11-06T13:17:01.193Z,6.28
2022-11-06T13:20:27.045Z,6.10
2022-11-06T13:23:44.568Z,6.13
2022-11-06T13:27:09.620Z,6.95
2022-11-06T13:30:24.493Z,6.88
2022-11-06T13:33:39.485Z,6.60
2022-11-06T13:36:40.994Z,6.88
2022-11-06T13:39:48.247Z,11.63
2022-11-06T13:43:02.058Z,6.97
2022-11-06T13:46:31.306Z,7.28
2022-11-06T13:49:43.803Z,6.93
2022-11-06T13:53:00.329Z,9.65
2022-11-06T13:56:23.030Z,9.20
2022-11-06T13:59:58.121Z,7.40
2022-11-06T14:03:13.814Z,8.13
2022-11-06T14:06:37.422Z,8.52
2022-11-06T14:09:45.665Z,8.38
2022-11-06T14:12:50.076Z,7.57
2022-11-06T14:16:20.414Z,8.52
2022-11-06T14:19:21.396Z,8.05
2022-11-06T14:22:40.751Z,8.57
2022-11-06T14:25:41.895Z,9.02
2022-11-06T14:28:44.072Z,7.82
2022-11-06T14:32:41.328Z,8.20
2022-11-06T14:35:41.795Z,8.10
2022-11-06T14:38:43.103Z,9.20
2022-11-06T14:41:55.520Z,8.50
2022-11-06T14:45:02.749Z,12.73
2022-11-06T14:48:03.780Z,8.98
2022-11-06T14:51:09.823Z,8.95
2022-11-06T14:54:24.721Z,7.88
2022-11-06T14:57:48.183Z,7.90
2022-11-06T15:01:09.107Z,8.45
2022-11-06T15:04:13.107Z,7.68
2022-11-06T15:08:03.990Z,7.47
2022-11-06T15:10:59.300Z,6.38
2022-11-06T15:14:04.557Z,7.75
2022-11-06T15:17:16.653Z,8.02
2022-11-06T15:20:30.751Z,8.60
2022-11-06T15:23:53.377Z,7.45
2022-11-06T15:27:06.567Z,9.38
2022-11-06T15:30:15.420Z,11.23
2022-11-06T15:33:45.322Z,8.95
2022-11-06T15:36:55.280Z,8.40
2022-11-06T15:40:01.207Z,9.05
2022-11-06T15:43:24.692Z,9.70
2022-11-06T15:46:28.547Z,9.23
2022-11-06T15:49:29.986Z,9.30
2022-11-06T15:52:30.699Z,8.80
2022-11-06T15:55:36.813Z,9.80
2022-11-06T15:58:38.635Z,9.95
2022-11-06T16:01:42.291Z,9.60
2022-11-06T16:04:45.145Z,10.27
2022-11-06T16:07:48.601Z,10.82
2022-11-06T16:10:50.159Z,10.45
2022-11-06T16:13:51.226Z,11.02
2022-11-06T16:16:57.613Z,12.10
2022-11-06T16:20:02.132Z,11.00
2022-11-06T16:23:06.197Z,13.25
2022-11-06T16:26:13.954Z,11.02
2022-11-06T16:29:29.663Z,11.60
2022-11-06T16:32:39.774Z,12.18
2022-11-06T16:35:50.081Z,22.63
2022-11-06T16:39:18.216Z,12.13
2022-11-06T16:42:24.416Z,17.25
2022-11-06T16:45:25.226Z,11.80
2022-11-06T16:48:39.915Z,12.15
2022-11-06T16:51:40.543Z,11.75
2022-11-06T16:55:08.133Z,13.93
2022-11-06T16:58:17.475Z,11.48
2022-11-06T17:01:20.798Z,12.68
2022-11-06T17:04:26.470Z,14.50
2022-11-06T17:07:27.524Z,12.90
2022-11-06T17:10:42.036Z,14.15
2022-11-06T17:13:45.508Z,14.57
2022-11-06T17:16:57.900Z,14.48
2022-11-06T17:19:58.836Z,20.52
2022-11-06T17:23:00.206Z,16.67
2022-11-06T17:26:07.920Z,15.98
2022-11-06T17:29:11.348Z,21.33
2022-11-06T17:32:12.042Z,17.30
2022-11-06T17:35:12.780Z,16.08
2022-11-06T17:38:15.004Z,14.05
2022-11-06T17:41:32.525Z,15.20
2022-11-06T17:44:33.410Z,45.95
2022-11-06T17:47:34.258Z,74.18
2022-11-06T17:50:54.980Z,136.45
2022-11-06T17:53:56.024Z,99.28
2022-11-06T17:56:58.705Z,58.47
2022-11-06T17:59:59.673Z,39.25
2022-11-06T18:03:02.303Z,30.17
2022-11-06T18:06:04.318Z,21.40
2022-11-06T18:09:08.185Z,21.90
2022-11-06T18:12:13.628Z,29.27
2022-11-06T18:15:14.599Z,25.08
2022-11-06T18:18:15.677Z,30.25
2022-11-06T18:21:17.374Z,27.50
2022-11-06T18:24:18.346Z,33.03
2022-11-06T18:27:19.496Z,30.88
2022-11-06T18:30:20.799Z,30.17
2022-11-06T18:33:22.022Z,31.83
2022-11-06T18:36:23.218Z,34.42
2022-11-06T18:39:24.148Z,30.58
2022-11-06T18:42:25.015Z,27.27
2022-11-06T18:45:25.684Z,32.03
2022-11-06T18:48:26.834Z,31.45
2022-11-06T18:51:35.689Z,29.17
2022-11-06T18:54:37.008Z,23.85
2022-11-06T18:57:38.183Z,24.67
2022-11-06T19:00:39.022Z,26.27
2022-11-06T19:03:41.564Z,24.08
2022-11-06T19:06:42.729Z,24.58
2022-11-06T19:09:43.537Z,27.05
2022-11-06T19:12:44.290Z,31.23
2022-11-06T19:15:45.508Z,25.85
2022-11-06T19:22:02.389Z,17.85
2022-11-06T19:25:04.350Z,31.67
2022-11-06T19:28:05.406Z,25.77
2022-11-06T19:31:06.741Z,22.35
2022-11-06T19:34:08.979Z,21.23
2022-11-06T19:37:10.003Z,19.85
2022-11-06T19:40:11.590Z,16.00
2022-11-06T19:43:13.068Z,18.70
2022-11-06T19:46:23.400Z,17.45
2022-11-06T19:49:26.074Z,17.45
2022-11-06T19:52:42.860Z,18.35
2022-11-06T19:55:45.519Z,20.30
2022-11-06T19:58:47.848Z,20.55
2022-11-06T20:01:50.189Z,17.63
2022-11-06T20:04:51.161Z,18.85
2022-11-06T20:07:52.438Z,19.60
2022-11-06T20:10:53.398Z,20.52
2022-11-06T20:13:54.255Z,19.42
2022-11-06T20:16:55.816Z,20.60
2022-11-06T20:19:56.685Z,27.48
2022-11-06T20:22:57.372Z,26.58
2022-11-06T20:25:58.612Z,22.92
2022-11-06T20:28:59.869Z,21.85
2022-11-06T20:32:00.908Z,21.77
2022-11-06T20:35:02.168Z,23.58
2022-11-06T20:38:03.368Z,29.42
2022-11-06T20:41:04.264Z,23.58
2022-11-06T20:44:05.145Z,29.63
2022-11-06T20:47:06.330Z,27.23
2022-11-06T20:50:07.178Z,27.42
2022-11-06T20:53:07.929Z,27.23
2022-11-06T20:56:12.870Z,29.42
2022-11-06T20:59:14.735Z,23.30
2022-11-06T21:02:15.761Z,21.83
2022-11-06T21:05:16.994Z,11.32
2022-11-06T21:08:17.854Z,9.05
2022-11-06T21:11:26.085Z,7.18
2022-11-06T21:14:27.199Z,7.22
2022-11-06T21:17:28.150Z,10.52
2022-11-06T21:20:28.958Z,13.05
2022-11-06T21:23:30.137Z,15.10
2022-11-06T21:26:36.167Z,14.13
2022-11-06T21:29:36.973Z,12.23
2022-11-06T21:32:37.772Z,10.50
2022-11-06T21:35:38.810Z,11.00
2022-11-06T21:38:39.893Z,11.23
2022-11-06T21:41:41.229Z,10.15
2022-11-06T21:44:42.302Z,11.70
2022-11-06T21:47:42.995Z,15.93
2022-11-06T21:50:43.747Z,16.33
2022-11-06T21:54:03.556Z,15.05
2022-11-06T21:57:04.252Z,12.70
2022-11-06T22:00:05.776Z,11.30
2022-11-06T22:03:13.380Z,15.27
2022-11-06T22:06:20.479Z,13.40
2022-11-06T22:09:25.236Z,15.40
2022-11-06T22:12:26.388Z,15.20
2022-11-06T22:15:27.499Z,12.60
2022-11-06T22:18:29.356Z,14.52
2022-11-06T22:21:31.075Z,10.90
2022-11-06T22:24:31.979Z,8.20
2022-11-06T22:27:36.816Z,8.40
2022-11-06T22:30:40.337Z,7.47
2022-11-06T22:33:41.250Z,7.03
2022-11-06T22:36:42.126Z,7.82
2022-11-06T22:39:43.426Z,6.80
2022-11-06T22:42:47.177Z,5.93
2022-11-06T22:45:50.563Z,4.90
2022-11-06T22:48:52.618Z,4.70
2022-11-06T22:51:53.811Z,4.53
2022-11-06T22:54:54.903Z,4.78
2022-11-06T22:57:55.690Z,4.00
2022-11-06T23:00:58.209Z,4.03
2022-11-06T23:04:04.934Z,3.80
2022-11-06T23:07:06.092Z,3.60
2022-11-06T23:10:08.372Z,3.50
2022-11-06T23:13:10.941Z,5.15
2022-11-06T23:16:43.206Z,6.18
2022-11-06T23:19:44.145Z,3.88
2022-11-06T23:22:45.523Z,5.15
2022-11-06T23:25:46.369Z,5.38
2022-11-06T23:28:47.293Z,4.43
2022-11-06T23:31:48.485Z,5.05
2022-11-06T23:34:51.521Z,3.42
2022-11-06T23:37:52.651Z,3.08
2022-11-06T23:40:53.826Z,3.40
2022-11-06T23:43:56.254Z,5.18
2022-11-06T23:46:58.150Z,7.30
2022-11-06T23:49:59.572Z,8.35
2022-11-06T23:53:00.255Z,7.75
2022-11-06T23:56:10.582Z,9.27
2022-11-06T23:59:12.981Z,10.68
